sensor_id;sensor_type;location;lat;lon;timestamp;temperature;humidity
20278;DHT22;10298;49.716;17.806;2022-07-05T00:01:37;19.70;99.90
20278;DHT22;10298;49.716;17.806;2022-07-05T00:04:04;19.70;99.90
20278;DHT22;10298;49.716;17.806;2022-07-05T00:06:31;19.80;99.90
20278;DHT22;10298;49.716;17.806;2022-07-05T00:08:58;19.80;99.90
20278;DHT22;10298;49.716;17.806;2022-07-05T00:11:25;19.70;99.90
20278;DHT22;10298;49.716;17.806;2022-07-05T00:13:52;19.70;99.90
20278;DHT22;10298;49.716;17.806;2022-07-05T00:16:18;19.60;99.90
20278;DHT22;10298;49.716;17.806;2022-07-05T00:18:45;19.70;99.90
20278;DHT22;10298;49.716;17.806;2022-07-05T00:21:12;19.60;99.90
20278;DHT22;10298;49.716;17.806;2022-07-05T00:23:39;19.60;99.90
20278;DHT22;10298;49.716;17.806;2022-07-05T00:26:06;19.60;99.90
20278;DHT22;10298;49.716;17.806;2022-07-05T00:28:33;19.60;99.90
20278;DHT22;10298;49.716;17.806;2022-07-05T00:31:00;19.50;99.90
20278;DHT22;10298;49.716;17.806;2022-07-05T00:33:27;19.60;99.90
20278;DHT22;10298;49.716;17.806;2022-07-05T00:35:53;19.60;99.90
20278;DHT22;10298;49.716;17.806;2022-07-05T00:38:20;19.60;99.90
20278;DHT22;10298;49.716;17.806;2022-07-05T00:40:47;19.60;99.90
20278;DHT22;10298;49.716;17.806;2022-07-05T00:43:14;19.60;99.90
20278;DHT22;10298;49.716;17.806;2022-07-05T00:45:41;19.50;99.90
20278;DHT22;10298;49.716;17.806;2022-07-05T00:48:08;19.50;99.90
20278;DHT22;10298;49.716;17.806;2022-07-05T00:50:34;19.40;99.90
20278;DHT22;10298;49.716;17.806;2022-07-05T00:53:01;19.30;99.90
20278;DHT22;10298;49.716;17.806;2022-07-05T00:55:28;19.30;99.90
20278;DHT22;10298;49.716;17.806;2022-07-05T00:57:55;19.30;99.90
20278;DHT22;10298;49.716;17.806;2022-07-05T01:00:23;19.20;99.90
20278;DHT22;10298;49.716;17.806;2022-07-05T01:02:50;19.20;99.90
20278;DHT22;10298;49.716;17.806;2022-07-05T01:05:17;19.20;99.90
20278;DHT22;10298;49.716;17.806;2022-07-05T01:07:44;19.20;99.90
20278;DHT22;10298;49.716;17.806;2022-07-05T01:10:11;19.20;99.90
20278;DHT22;10298;49.716;17.806;2022-07-05T01:12:39;19.20;99.90
20278;DHT22;10298;49.716;17.806;2022-07-05T01:15:07;19.30;99.90
20278;DHT22;10298;49.716;17.806;2022-07-05T01:17:35;19.30;99.90
20278;DHT22;10298;49.716;17.806;2022-07-05T01:20:05;19.20;99.90
20278;DHT22;10298;49.716;17.806;2022-07-05T01:22:50;19.20;99.90
20278;DHT22;10298;49.716;17.806;2022-07-05T01:25:23;19.10;99.90
20278;DHT22;10298;49.716;17.806;2022-07-05T01:27:51;19.10;99.90
20278;DHT22;10298;49.716;17.806;2022-07-05T01:30:19;19.10;99.90
20278;DHT22;10298;49.716;17.806;2022-07-05T01:32:46;19.00;99.90
20278;DHT22;10298;49.716;17.806;2022-07-05T01:35:14;18.90;99.90
20278;DHT22;10298;49.716;17.806;2022-07-05T01:37:48;18.90;99.90
20278;DHT22;10298;49.716;17.806;2022-07-05T01:40:15;18.80;99.90
20278;DHT22;10298;49.716;17.806;2022-07-05T01:42:42;18.80;99.90
20278;DHT22;10298;49.716;17.806;2022-07-05T01:45:10;18.80;99.90
20278;DHT22;10298;49.716;17.806;2022-07-05T01:47:40;18.70;99.90
20278;DHT22;10298;49.716;17.806;2022-07-05T01:50:08;18.50;99.90
20278;DHT22;10298;49.716;17.806;2022-07-05T01:52:36;18.40;99.90
20278;DHT22;10298;49.716;17.806;2022-07-05T01:55:05;18.50;99.90
20278;DHT22;10298;49.716;17.806;2022-07-05T01:57:32;18.40;99.90
20278;DHT22;10298;49.716;17.806;2022-07-05T01:59:59;18.30;99.90
20278;DHT22;10298;49.716;17.806;2022-07-05T02:02:26;18.20;99.90
20278;DHT22;10298;49.716;17.806;2022-07-05T02:04:53;18.20;99.90
20278;DHT22;10298;49.716;17.806;2022-07-05T02:07:20;18.20;99.90
20278;DHT22;10298;49.716;17.806;2022-07-05T02:09:47;18.10;99.90
20278;DHT22;10298;49.716;17.806;2022-07-05T02:12:14;18.00;99.90
20278;DHT22;10298;49.716;17.806;2022-07-05T02:14:41;18.00;99.90
20278;DHT22;10298;49.716;17.806;2022-07-05T02:17:08;18.00;99.90
20278;DHT22;10298;49.716;17.806;2022-07-05T02:19:37;17.90;99.90
20278;DHT22;10298;49.716;17.806;2022-07-05T02:22:05;18.00;99.90
20278;DHT22;10298;49.716;17.806;2022-07-05T02:24:32;17.90;99.90
20278;DHT22;10298;49.716;17.806;2022-07-05T02:26:59;17.90;99.90
20278;DHT22;10298;49.716;17.806;2022-07-05T02:29:26;17.90;99.90
20278;DHT22;10298;49.716;17.806;2022-07-05T02:31:53;17.80;99.90
20278;DHT22;10298;49.716;17.806;2022-07-05T02:34:20;17.80;99.90
20278;DHT22;10298;49.716;17.806;2022-07-05T02:36:47;17.80;99.90
20278;DHT22;10298;49.716;17.806;2022-07-05T02:39:14;17.70;99.90
20278;DHT22;10298;49.716;17.806;2022-07-05T02:41:40;17.70;99.90
20278;DHT22;10298;49.716;17.806;2022-07-05T02:44:07;17.80;99.90
20278;DHT22;10298;49.716;17.806;2022-07-05T02:46:34;17.80;99.90
20278;DHT22;10298;49.716;17.806;2022-07-05T02:49:01;17.70;99.90
20278;DHT22;10298;49.716;17.806;2022-07-05T02:51:28;17.70;99.90
20278;DHT22;10298;49.716;17.806;2022-07-05T02:53:55;17.70;99.90
20278;DHT22;10298;49.716;17.806;2022-07-05T02:56:22;17.60;99.90
20278;DHT22;10298;49.716;17.806;2022-07-05T02:58:49;17.60;99.90
20278;DHT22;10298;49.716;17.806;2022-07-05T03:01:16;17.60;99.90
20278;DHT22;10298;49.716;17.806;2022-07-05T03:03:43;17.60;99.90
20278;DHT22;10298;49.716;17.806;2022-07-05T03:06:10;17.60;99.90
20278;DHT22;10298;49.716;17.806;2022-07-05T03:08:37;17.60;99.90
20278;DHT22;10298;49.716;17.806;2022-07-05T03:11:03;17.60;99.90
20278;DHT22;10298;49.716;17.806;2022-07-05T03:13:30;17.60;99.90
20278;DHT22;10298;49.716;17.806;2022-07-05T03:15:57;17.60;99.90
20278;DHT22;10298;49.716;17.806;2022-07-05T03:18:24;17.70;99.90
20278;DHT22;10298;49.716;17.806;2022-07-05T03:20:52;17.70;99.90
20278;DHT22;10298;49.716;17.806;2022-07-05T03:23:19;17.70;99.90
20278;DHT22;10298;49.716;17.806;2022-07-05T03:25:46;17.70;99.90
20278;DHT22;10298;49.716;17.806;2022-07-05T03:28:13;17.60;99.90
20278;DHT22;10298;49.716;17.806;2022-07-05T03:30:39;17.60;99.90
20278;DHT22;10298;49.716;17.806;2022-07-05T03:33:07;17.70;99.90
20278;DHT22;10298;49.716;17.806;2022-07-05T03:35:34;17.60;99.90
20278;DHT22;10298;49.716;17.806;2022-07-05T03:38:01;17.70;99.90
20278;DHT22;10298;49.716;17.806;2022-07-05T03:40:28;17.80;99.90
20278;DHT22;10298;49.716;17.806;2022-07-05T03:42:55;17.80;99.90
20278;DHT22;10298;49.716;17.806;2022-07-05T03:45:21;17.80;99.90
20278;DHT22;10298;49.716;17.806;2022-07-05T03:47:49;17.70;99.90
20278;DHT22;10298;49.716;17.806;2022-07-05T03:50:15;17.80;99.90
20278;DHT22;10298;49.716;17.806;2022-07-05T03:52:42;17.80;99.90
20278;DHT22;10298;49.716;17.806;2022-07-05T03:55:09;17.80;99.90
20278;DHT22;10298;49.716;17.806;2022-07-05T03:57:36;17.80;99.90
20278;DHT22;10298;49.716;17.806;2022-07-05T04:00:03;17.80;99.90
20278;DHT22;10298;49.716;17.806;2022-07-05T04:02:30;17.90;99.90
20278;DHT22;10298;49.716;17.806;2022-07-05T04:04:57;17.80;99.90
20278;DHT22;10298;49.716;17.806;2022-07-05T04:07:24;17.80;99.90
20278;DHT22;10298;49.716;17.806;2022-07-05T04:09:51;17.90;99.90
20278;DHT22;10298;49.716;17.806;2022-07-05T04:12:18;17.90;99.90
20278;DHT22;10298;49.716;17.806;2022-07-05T04:14:45;17.80;99.90
20278;DHT22;10298;49.716;17.806;2022-07-05T04:17:12;17.80;99.90
20278;DHT22;10298;49.716;17.806;2022-07-05T04:19:39;17.70;99.90
20278;DHT22;10298;49.716;17.806;2022-07-05T04:22:06;17.80;99.90
20278;DHT22;10298;49.716;17.806;2022-07-05T04:24:33;17.80;99.90
20278;DHT22;10298;49.716;17.806;2022-07-05T04:27:23;17.80;99.90
20278;DHT22;10298;49.716;17.806;2022-07-05T04:29:49;17.70;99.90
20278;DHT22;10298;49.716;17.806;2022-07-05T04:32:16;17.80;99.90
20278;DHT22;10298;49.716;17.806;2022-07-05T04:34:43;17.80;99.90
20278;DHT22;10298;49.716;17.806;2022-07-05T04:37:10;17.80;99.90
20278;DHT22;10298;49.716;17.806;2022-07-05T04:39:37;17.80;99.90
20278;DHT22;10298;49.716;17.806;2022-07-05T04:42:04;17.80;99.90
20278;DHT22;10298;49.716;17.806;2022-07-05T04:44:31;17.80;99.90
20278;DHT22;10298;49.716;17.806;2022-07-05T04:46:58;17.80;99.90
20278;DHT22;10298;49.716;17.806;2022-07-05T04:49:25;17.90;99.90
20278;DHT22;10298;49.716;17.806;2022-07-05T04:51:51;17.90;99.90
20278;DHT22;10298;49.716;17.806;2022-07-05T04:54:18;17.90;99.90
20278;DHT22;10298;49.716;17.806;2022-07-05T04:56:45;17.90;99.90
20278;DHT22;10298;49.716;17.806;2022-07-05T04:59:12;17.90;99.90
20278;DHT22;10298;49.716;17.806;2022-07-05T05:01:39;17.90;99.90
20278;DHT22;10298;49.716;17.806;2022-07-05T05:04:06;17.90;99.90
20278;DHT22;10298;49.716;17.806;2022-07-05T05:06:33;17.90;99.90
20278;DHT22;10298;49.716;17.806;2022-07-05T05:09:00;17.90;99.90
20278;DHT22;10298;49.716;17.806;2022-07-05T05:11:26;17.90;99.90
20278;DHT22;10298;49.716;17.806;2022-07-05T05:13:53;17.90;99.90
20278;DHT22;10298;49.716;17.806;2022-07-05T05:16:20;18.00;99.90
20278;DHT22;10298;49.716;17.806;2022-07-05T05:18:47;18.00;99.90
20278;DHT22;10298;49.716;17.806;2022-07-05T05:21:14;18.00;99.90
20278;DHT22;10298;49.716;17.806;2022-07-05T05:23:41;18.10;99.90
20278;DHT22;10298;49.716;17.806;2022-07-05T05:26:08;18.10;99.90
20278;DHT22;10298;49.716;17.806;2022-07-05T05:28:34;18.10;99.90
20278;DHT22;10298;49.716;17.806;2022-07-05T05:31:01;18.10;99.90
20278;DHT22;10298;49.716;17.806;2022-07-05T05:33:28;18.10;99.90
20278;DHT22;10298;49.716;17.806;2022-07-05T05:35:55;18.20;99.90
20278;DHT22;10298;49.716;17.806;2022-07-05T05:38:22;18.30;99.90
20278;DHT22;10298;49.716;17.806;2022-07-05T05:40:49;18.40;99.90
20278;DHT22;10298;49.716;17.806;2022-07-05T05:43:16;18.40;99.90
20278;DHT22;10298;49.716;17.806;2022-07-05T05:45:43;18.40;99.90
20278;DHT22;10298;49.716;17.806;2022-07-05T05:48:10;18.40;99.90
20278;DHT22;10298;49.716;17.806;2022-07-05T05:50:38;18.50;99.90
20278;DHT22;10298;49.716;17.806;2022-07-05T05:53:08;18.50;99.90
20278;DHT22;10298;49.716;17.806;2022-07-05T05:55:35;18.60;99.90
20278;DHT22;10298;49.716;17.806;2022-07-05T05:58:19;18.50;99.90
20278;DHT22;10298;49.716;17.806;2022-07-05T06:00:47;18.60;99.90
20278;DHT22;10298;49.716;17.806;2022-07-05T06:03:15;18.60;99.90
20278;DHT22;10298;49.716;17.806;2022-07-05T06:05:43;18.60;99.90
20278;DHT22;10298;49.716;17.806;2022-07-05T06:08:10;18.60;99.90
20278;DHT22;10298;49.716;17.806;2022-07-05T06:10:39;18.60;99.90
20278;DHT22;10298;49.716;17.806;2022-07-05T06:13:09;18.70;99.90
20278;DHT22;10298;49.716;17.806;2022-07-05T06:15:35;18.80;99.90
20278;DHT22;10298;49.716;17.806;2022-07-05T06:18:03;18.90;99.90
20278;DHT22;10298;49.716;17.806;2022-07-05T06:20:32;18.90;99.90
20278;DHT22;10298;49.716;17.806;2022-07-05T06:23:00;18.90;99.90
20278;DHT22;10298;49.716;17.806;2022-07-05T06:25:28;19.00;99.90
20278;DHT22;10298;49.716;17.806;2022-07-05T06:28:00;19.10;99.90
20278;DHT22;10298;49.716;17.806;2022-07-05T06:30:28;19.10;99.90
20278;DHT22;10298;49.716;17.806;2022-07-05T06:32:55;19.20;99.90
20278;DHT22;10298;49.716;17.806;2022-07-05T06:35:23;19.20;99.90
20278;DHT22;10298;49.716;17.806;2022-07-05T06:37:59;19.20;99.90
20278;DHT22;10298;49.716;17.806;2022-07-05T06:40:28;19.10;99.90
20278;DHT22;10298;49.716;17.806;2022-07-05T06:42:59;19.30;99.90
20278;DHT22;10298;49.716;17.806;2022-07-05T06:45:27;19.30;99.90
20278;DHT22;10298;49.716;17.806;2022-07-05T06:47:59;19.40;99.90
20278;DHT22;10298;49.716;17.806;2022-07-05T06:50:27;19.30;99.90
20278;DHT22;10298;49.716;17.806;2022-07-05T06:52:54;19.40;99.90
20278;DHT22;10298;49.716;17.806;2022-07-05T06:55:26;19.40;99.90
20278;DHT22;10298;49.716;17.806;2022-07-05T06:57:59;19.30;99.90
20278;DHT22;10298;49.716;17.806;2022-07-05T07:00:42;19.40;99.90
20278;DHT22;10298;49.716;17.806;2022-07-05T07:03:29;19.40;99.90
20278;DHT22;10298;49.716;17.806;2022-07-05T07:06:17;19.50;99.90
20278;DHT22;10298;49.716;17.806;2022-07-05T07:08:44;19.50;99.90
20278;DHT22;10298;49.716;17.806;2022-07-05T07:11:28;19.50;99.90
20278;DHT22;10298;49.716;17.806;2022-07-05T07:13:55;19.60;99.90
20278;DHT22;10298;49.716;17.806;2022-07-05T07:16:22;19.60;99.90
20278;DHT22;10298;49.716;17.806;2022-07-05T07:18:50;19.40;99.90
20278;DHT22;10298;49.716;17.806;2022-07-05T07:21:37;19.30;99.90
20278;DHT22;10298;49.716;17.806;2022-07-05T07:24:05;19.30;99.90
20278;DHT22;10298;49.716;17.806;2022-07-05T07:26:32;19.30;99.90
20278;DHT22;10298;49.716;17.806;2022-07-05T07:29:19;19.30;99.90
20278;DHT22;10298;49.716;17.806;2022-07-05T07:31:46;19.40;99.90
20278;DHT22;10298;49.716;17.806;2022-07-05T07:34:13;19.40;99.90
20278;DHT22;10298;49.716;17.806;2022-07-05T07:36:40;19.50;99.90
20278;DHT22;10298;49.716;17.806;2022-07-05T07:39:07;19.50;99.90
20278;DHT22;10298;49.716;17.806;2022-07-05T07:41:34;19.50;99.90
20278;DHT22;10298;49.716;17.806;2022-07-05T07:44:01;19.40;99.90
20278;DHT22;10298;49.716;17.806;2022-07-05T07:46:28;19.40;99.90
20278;DHT22;10298;49.716;17.806;2022-07-05T07:48:55;19.40;99.90
20278;DHT22;10298;49.716;17.806;2022-07-05T07:51:22;19.40;99.90
20278;DHT22;10298;49.716;17.806;2022-07-05T07:53:49;19.40;99.90
20278;DHT22;10298;49.716;17.806;2022-07-05T07:56:16;19.30;99.90
20278;DHT22;10298;49.716;17.806;2022-07-05T07:58:43;19.30;99.90
20278;DHT22;10298;49.716;17.806;2022-07-05T08:01:10;19.40;99.90
20278;DHT22;10298;49.716;17.806;2022-07-05T08:03:38;19.40;99.90
20278;DHT22;10298;49.716;17.806;2022-07-05T08:06:06;19.40;99.90
20278;DHT22;10298;49.716;17.806;2022-07-05T08:08:38;19.40;99.90
20278;DHT22;10298;49.716;17.806;2022-07-05T08:11:06;19.20;99.90
20278;DHT22;10298;49.716;17.806;2022-07-05T08:13:33;19.30;99.90
20278;DHT22;10298;49.716;17.806;2022-07-05T08:16:00;19.20;99.90
20278;DHT22;10298;49.716;17.806;2022-07-05T08:18:27;19.20;99.90
20278;DHT22;10298;49.716;17.806;2022-07-05T08:21:13;19.10;99.90
20278;DHT22;10298;49.716;17.806;2022-07-05T08:23:59;19.10;99.90
20278;DHT22;10298;49.716;17.806;2022-07-05T08:26:27;19.00;99.90
20278;DHT22;10298;49.716;17.806;2022-07-05T08:28:54;19.00;99.90
20278;DHT22;10298;49.716;17.806;2022-07-05T08:31:36;18.90;99.90
20278;DHT22;10298;49.716;17.806;2022-07-05T08:34:03;19.00;99.90
20278;DHT22;10298;49.716;17.806;2022-07-05T08:36:30;18.80;99.90
20278;DHT22;10298;49.716;17.806;2022-07-05T08:38:57;18.80;99.90
20278;DHT22;10298;49.716;17.806;2022-07-05T08:41:24;18.70;99.90
20278;DHT22;10298;49.716;17.806;2022-07-05T08:43:51;18.60;99.90
20278;DHT22;10298;49.716;17.806;2022-07-05T08:46:19;18.70;99.90
20278;DHT22;10298;49.716;17.806;2022-07-05T08:48:50;18.70;99.90
20278;DHT22;10298;49.716;17.806;2022-07-05T08:51:19;18.60;99.90
20278;DHT22;10298;49.716;17.806;2022-07-05T08:53:52;18.60;99.90
20278;DHT22;10298;49.716;17.806;2022-07-05T08:56:20;18.60;99.90
20278;DHT22;10298;49.716;17.806;2022-07-05T08:59:05;18.50;99.90
20278;DHT22;10298;49.716;17.806;2022-07-05T09:01:33;18.40;99.90
20278;DHT22;10298;49.716;17.806;2022-07-05T09:04:04;18.40;99.90
20278;DHT22;10298;49.716;17.806;2022-07-05T09:06:34;18.30;99.90
20278;DHT22;10298;49.716;17.806;2022-07-05T09:09:02;18.30;99.90
20278;DHT22;10298;49.716;17.806;2022-07-05T09:11:39;18.30;99.90
20278;DHT22;10298;49.716;17.806;2022-07-05T09:14:15;18.30;99.90
20278;DHT22;10298;49.716;17.806;2022-07-05T09:16:54;18.20;99.90
20278;DHT22;10298;49.716;17.806;2022-07-05T09:19:23;18.20;99.90
20278;DHT22;10298;49.716;17.806;2022-07-05T09:22:03;18.10;99.90
20278;DHT22;10298;49.716;17.806;2022-07-05T09:24:31;18.10;99.90
20278;DHT22;10298;49.716;17.806;2022-07-05T09:27:04;17.90;99.90
20278;DHT22;10298;49.716;17.806;2022-07-05T09:29:32;17.90;99.90
20278;DHT22;10298;49.716;17.806;2022-07-05T09:32:23;17.90;99.90
20278;DHT22;10298;49.716;17.806;2022-07-05T09:34:50;17.90;99.90
20278;DHT22;10298;49.716;17.806;2022-07-05T09:37:17;17.70;99.90
20278;DHT22;10298;49.716;17.806;2022-07-05T09:39:44;17.60;99.90
20278;DHT22;10298;49.716;17.806;2022-07-05T09:42:18;17.60;99.90
20278;DHT22;10298;49.716;17.806;2022-07-05T09:44:54;17.70;99.90
20278;DHT22;10298;49.716;17.806;2022-07-05T09:47:27;17.60;99.90
20278;DHT22;10298;49.716;17.806;2022-07-05T09:49:56;17.60;99.90
20278;DHT22;10298;49.716;17.806;2022-07-05T09:52:41;17.60;99.90
20278;DHT22;10298;49.716;17.806;2022-07-05T09:55:16;17.60;99.90
20278;DHT22;10298;49.716;17.806;2022-07-05T09:57:45;17.60;99.90
20278;DHT22;10298;49.716;17.806;2022-07-05T10:00:19;17.60;99.90
20278;DHT22;10298;49.716;17.806;2022-07-05T10:02:48;17.60;99.90
20278;DHT22;10298;49.716;17.806;2022-07-05T10:05:20;17.60;99.90
20278;DHT22;10298;49.716;17.806;2022-07-05T10:07:54;17.60;99.90
20278;DHT22;10298;49.716;17.806;2022-07-05T10:10:24;17.60;99.90
20278;DHT22;10298;49.716;17.806;2022-07-05T10:12:54;17.60;99.90
20278;DHT22;10298;49.716;17.806;2022-07-05T10:15:27;17.60;99.90
20278;DHT22;10298;49.716;17.806;2022-07-05T10:18:03;17.60;99.90
20278;DHT22;10298;49.716;17.806;2022-07-05T10:23:04;17.40;99.90
20278;DHT22;10298;49.716;17.806;2022-07-05T10:25:35;17.40;99.90
20278;DHT22;10298;49.716;17.806;2022-07-05T10:28:03;17.50;99.90
20278;DHT22;10298;49.716;17.806;2022-07-05T10:30:30;17.60;99.90
20278;DHT22;10298;49.716;17.806;2022-07-05T10:32:58;17.60;99.90
20278;DHT22;10298;49.716;17.806;2022-07-05T10:35:26;17.60;99.90
20278;DHT22;10298;49.716;17.806;2022-07-05T10:37:54;17.70;99.90
20278;DHT22;10298;49.716;17.806;2022-07-05T10:40:21;17.70;99.90
20278;DHT22;10298;49.716;17.806;2022-07-05T10:43:00;17.60;99.90
20278;DHT22;10298;49.716;17.806;2022-07-05T10:45:35;17.70;99.90
20278;DHT22;10298;49.716;17.806;2022-07-05T10:48:22;17.80;99.90
20278;DHT22;10298;49.716;17.806;2022-07-05T10:50:57;17.70;99.90
20278;DHT22;10298;49.716;17.806;2022-07-05T10:53:59;17.60;99.90
20278;DHT22;10298;49.716;17.806;2022-07-05T10:56:15;17.60;99.90
20278;DHT22;10298;49.716;17.806;2022-07-05T10:58:46;17.60;99.90
20278;DHT22;10298;49.716;17.806;2022-07-05T11:11:46;17.60;99.90
20278;DHT22;10298;49.716;17.806;2022-07-05T11:14:35;17.60;99.90
20278;DHT22;10298;49.716;17.806;2022-07-05T11:17:20;17.60;99.90
20278;DHT22;10298;49.716;17.806;2022-07-05T11:20:17;17.60;99.90
20278;DHT22;10298;49.716;17.806;2022-07-05T11:23:09;17.60;99.90
20278;DHT22;10298;49.716;17.806;2022-07-05T11:25:39;17.60;99.90
20278;DHT22;10298;49.716;17.806;2022-07-05T11:28:21;17.50;99.90
20278;DHT22;10298;49.716;17.806;2022-07-05T11:30:53;17.50;99.90
20278;DHT22;10298;49.716;17.806;2022-07-05T11:33:38;17.50;99.90
20278;DHT22;10298;49.716;17.806;2022-07-05T11:36:07;17.50;99.90
20278;DHT22;10298;49.716;17.806;2022-07-05T11:41:42;17.30;99.90
20278;DHT22;10298;49.716;17.806;2022-07-05T11:44:10;17.30;99.90
20278;DHT22;10298;49.716;17.806;2022-07-05T11:46:37;17.30;99.90
20278;DHT22;10298;49.716;17.806;2022-07-05T11:49:22;17.20;99.90
20278;DHT22;10298;49.716;17.806;2022-07-05T11:51:57;17.20;99.90
20278;DHT22;10298;49.716;17.806;2022-07-05T11:54:30;17.10;99.90
20278;DHT22;10298;49.716;17.806;2022-07-05T11:56:59;17.00;99.90
20278;DHT22;10298;49.716;17.806;2022-07-05T11:59:26;17.00;99.90
20278;DHT22;10298;49.716;17.806;2022-07-05T12:01:54;17.00;99.90
20278;DHT22;10298;49.716;17.806;2022-07-05T12:04:26;17.00;99.90
20278;DHT22;10298;49.716;17.806;2022-07-05T12:06:54;17.00;99.90
20278;DHT22;10298;49.716;17.806;2022-07-05T12:09:30;16.90;99.90
20278;DHT22;10298;49.716;17.806;2022-07-05T12:12:20;17.00;99.90
20278;DHT22;10298;49.716;17.806;2022-07-05T12:15:07;16.80;99.90
20278;DHT22;10298;49.716;17.806;2022-07-05T12:17:35;16.80;99.90
20278;DHT22;10298;49.716;17.806;2022-07-05T12:20:03;16.70;99.90
20278;DHT22;10298;49.716;17.806;2022-07-05T12:22:32;16.80;99.90
20278;DHT22;10298;49.716;17.806;2022-07-05T12:25:00;16.80;99.90
20278;DHT22;10298;49.716;17.806;2022-07-05T12:27:28;16.80;99.90
20278;DHT22;10298;49.716;17.806;2022-07-05T12:29:56;16.70;99.90
20278;DHT22;10298;49.716;17.806;2022-07-05T12:32:23;16.70;99.90
20278;DHT22;10298;49.716;17.806;2022-07-05T12:34:50;16.70;99.90
20278;DHT22;10298;49.716;17.806;2022-07-05T12:37:25;16.60;99.90
20278;DHT22;10298;49.716;17.806;2022-07-05T12:40:05;16.60;99.90
20278;DHT22;10298;49.716;17.806;2022-07-05T12:42:37;16.50;99.90
20278;DHT22;10298;49.716;17.806;2022-07-05T12:45:15;16.60;99.90
20278;DHT22;10298;49.716;17.806;2022-07-05T12:47:53;16.60;99.90
20278;DHT22;10298;49.716;17.806;2022-07-05T12:50:25;16.60;99.90
20278;DHT22;10298;49.716;17.806;2022-07-05T12:53:04;16.60;99.90
20278;DHT22;10298;49.716;17.806;2022-07-05T12:55:50;16.50;99.90
20278;DHT22;10298;49.716;17.806;2022-07-05T12:58:46;16.50;99.90
20278;DHT22;10298;49.716;17.806;2022-07-05T13:12:18;16.70;99.90
20278;DHT22;10298;49.716;17.806;2022-07-05T13:14:49;16.70;99.90
20278;DHT22;10298;49.716;17.806;2022-07-05T13:17:19;16.70;99.90
20278;DHT22;10298;49.716;17.806;2022-07-05T13:19:49;16.60;99.90
20278;DHT22;10298;49.716;17.806;2022-07-05T13:22:17;16.50;99.90
20278;DHT22;10298;49.716;17.806;2022-07-05T13:24:44;16.40;99.90
20278;DHT22;10298;49.716;17.806;2022-07-05T13:27:12;16.50;99.90
20278;DHT22;10298;49.716;17.806;2022-07-05T13:29:40;16.40;99.90
20278;DHT22;10298;49.716;17.806;2022-07-05T13:32:07;16.30;99.90
20278;DHT22;10298;49.716;17.806;2022-07-05T13:34:34;16.30;99.90
20278;DHT22;10298;49.716;17.806;2022-07-05T13:37:01;16.20;99.90
20278;DHT22;10298;49.716;17.806;2022-07-05T13:39:28;16.10;99.90
20278;DHT22;10298;49.716;17.806;2022-07-05T13:41:57;16.00;99.90
20278;DHT22;10298;49.716;17.806;2022-07-05T13:44:24;15.80;99.90
20278;DHT22;10298;49.716;17.806;2022-07-05T13:46:51;15.80;99.90
20278;DHT22;10298;49.716;17.806;2022-07-05T13:49:18;15.60;99.90
20278;DHT22;10298;49.716;17.806;2022-07-05T13:51:46;15.60;99.90
20278;DHT22;10298;49.716;17.806;2022-07-05T13:54:13;15.50;99.90
20278;DHT22;10298;49.716;17.806;2022-07-05T13:56:40;15.50;99.90
20278;DHT22;10298;49.716;17.806;2022-07-05T13:59:08;15.40;99.90
20278;DHT22;10298;49.716;17.806;2022-07-05T14:01:35;15.40;99.90
20278;DHT22;10298;49.716;17.806;2022-07-05T14:04:02;15.40;99.90
20278;DHT22;10298;49.716;17.806;2022-07-05T14:06:30;15.40;99.90
20278;DHT22;10298;49.716;17.806;2022-07-05T14:08:58;15.40;99.90
20278;DHT22;10298;49.716;17.806;2022-07-05T14:11:26;15.40;99.90
20278;DHT22;10298;49.716;17.806;2022-07-05T14:13:57;15.40;99.90
20278;DHT22;10298;49.716;17.806;2022-07-05T14:16:24;15.40;99.90
20278;DHT22;10298;49.716;17.806;2022-07-05T14:18:51;15.40;99.90
20278;DHT22;10298;49.716;17.806;2022-07-05T14:21:19;15.30;99.90
20278;DHT22;10298;49.716;17.806;2022-07-05T14:24:03;15.40;99.90
20278;DHT22;10298;49.716;17.806;2022-07-05T14:26:30;15.40;99.90
20278;DHT22;10298;49.716;17.806;2022-07-05T14:28:59;15.40;99.90
20278;DHT22;10298;49.716;17.806;2022-07-05T14:31:28;15.50;99.90
20278;DHT22;10298;49.716;17.806;2022-07-05T14:33:58;15.50;99.90
20278;DHT22;10298;49.716;17.806;2022-07-05T14:36:25;15.60;99.90
20278;DHT22;10298;49.716;17.806;2022-07-05T14:38:52;15.50;99.90
20278;DHT22;10298;49.716;17.806;2022-07-05T14:41:19;15.50;99.90
20278;DHT22;10298;49.716;17.806;2022-07-05T14:43:46;15.40;99.90
20278;DHT22;10298;49.716;17.806;2022-07-05T14:46:13;15.30;99.90
20278;DHT22;10298;49.716;17.806;2022-07-05T14:48:45;15.30;99.90
20278;DHT22;10298;49.716;17.806;2022-07-05T14:51:12;15.20;99.90
20278;DHT22;10298;49.716;17.806;2022-07-05T14:53:39;15.20;99.90
20278;DHT22;10298;49.716;17.806;2022-07-05T14:56:09;15.20;99.90
20278;DHT22;10298;49.716;17.806;2022-07-05T14:58:36;15.10;99.90
20278;DHT22;10298;49.716;17.806;2022-07-05T15:01:03;15.10;99.90
20278;DHT22;10298;49.716;17.806;2022-07-05T15:03:30;15.00;99.90
20278;DHT22;10298;49.716;17.806;2022-07-05T15:05:57;15.10;99.90
20278;DHT22;10298;49.716;17.806;2022-07-05T15:08:23;15.10;99.90
20278;DHT22;10298;49.716;17.806;2022-07-05T15:10:53;15.10;99.90
20278;DHT22;10298;49.716;17.806;2022-07-05T15:13:20;15.10;99.90
20278;DHT22;10298;49.716;17.806;2022-07-05T15:15:47;15.00;99.90
20278;DHT22;10298;49.716;17.806;2022-07-05T15:18:14;15.00;99.90
20278;DHT22;10298;49.716;17.806;2022-07-05T15:20:41;15.00;99.90
20278;DHT22;10298;49.716;17.806;2022-07-05T15:23:08;15.00;99.90
20278;DHT22;10298;49.716;17.806;2022-07-05T15:25:35;15.10;99.90
20278;DHT22;10298;49.716;17.806;2022-07-05T15:28:03;15.00;99.90
20278;DHT22;10298;49.716;17.806;2022-07-05T15:30:32;15.00;99.90
20278;DHT22;10298;49.716;17.806;2022-07-05T15:33:01;15.00;99.90
20278;DHT22;10298;49.716;17.806;2022-07-05T15:35:29;15.00;99.90
20278;DHT22;10298;49.716;17.806;2022-07-05T15:37:55;15.00;99.90
20278;DHT22;10298;49.716;17.806;2022-07-05T15:40:23;15.00;99.90
20278;DHT22;10298;49.716;17.806;2022-07-05T15:42:50;15.00;99.90
20278;DHT22;10298;49.716;17.806;2022-07-05T15:45:17;15.00;99.90
20278;DHT22;10298;49.716;17.806;2022-07-05T15:47:43;15.00;99.90
20278;DHT22;10298;49.716;17.806;2022-07-05T15:50:10;14.90;99.90
20278;DHT22;10298;49.716;17.806;2022-07-05T15:52:39;15.00;99.90
20278;DHT22;10298;49.716;17.806;2022-07-05T15:55:07;15.10;99.90
20278;DHT22;10298;49.716;17.806;2022-07-05T15:57:34;15.00;99.90